This is the latest recevied weather packets stored in our database for station/object LRTM. If no packets are shown the sender has not sent any weather packets the latest 10 day(s).
| Time | Temp. | Humidity | Pressure | Rain* | Wind** | Luminosity | Snow |
|---|---|---|---|---|---|---|---|
| 1777585707 | 2.22° C | 87% | 1026 hPa | - | - | - | - |
| 1777584807 | 2.22° C | 87% | 1026 hPa | - | - | - | - |
| 1777583907 | 2.78° C | 87% | 1025 hPa | - | - | - | - |
| 1777583009 | 2.78° C | 87% | 1025 hPa | - | - | - | - |
| 1777582106 | 3.89° C | 81% | 1025 hPa | - | - | - | - |
| 1777581206 | 3.89° C | 81% | 1025 hPa | - | - | - | - |
| 1777580306 | 3.89° C | 87% | 1025 hPa | - | - | - | - |
| 1777579407 | 3.89° C | 87% | 1025 hPa | - | - | - | - |
| 1777578506 | 6.11° C | 76% | 1025 hPa | - | - | - | - |
| 1777577627 | 6.11° C | 76% | 1025 hPa | - | - | - | - |
| 1777576709 | 7.22° C | 66% | 1025 hPa | - | - | - | - |
| 1777575806 | 7.22° C | 66% | 1025 hPa | - | - | - | - |
| 1777574904 | 7.22° C | 61% | 1025 hPa | - | - | - | - |
| 1777574006 | 7.22° C | 61% | 1025 hPa | - | - | - | - |
| 1777573106 | 6.11° C | 66% | 1025 hPa | - | - | - | - |
| 1777572207 | 6.11° C | 66% | 1025 hPa | - | - | - | - |
| 1777571306 | 7.22° C | 61% | 1024 hPa | - | - | - | - |
| 1777570407 | 7.22° C | 61% | 1024 hPa | - | - | - | - |
| 1777569506 | 7.78° C | 57% | 1024 hPa | - | - | - | - |
| 1777568606 | 7.78° C | 57% | 1024 hPa | - | - | - | - |
| 1777567708 | 7.78° C | 57% | 1024 hPa | - | - | - | - |
| 1777566806 | 7.78° C | 57% | 1024 hPa | - | - | - | - |
| 1777565907 | 11.11° C | 47% | 1023 hPa | - | - | - | - |
| 1777565006 | 11.11° C | 47% | 1023 hPa | - | - | - | - |
| 1777564107 | 10° C | 54% | 1024 hPa | - | - | - | - |
* Rain since midnight (hover to see other rain measurements)
** Current wind speed in m/s (hover to see current wind gust speed)